createdAt,value
2022-10-31T00:00:23.544Z,75.6
2022-10-31T00:01:26.917Z,75.71
2022-10-31T00:02:24.515Z,75.97
2022-10-31T00:03:24.780Z,75.88
2022-10-31T00:04:25.305Z,75.95
2022-10-31T00:05:25.616Z,76.16
2022-10-31T00:06:26.232Z,76.67
2022-10-31T00:07:26.244Z,76.64
2022-10-31T00:08:26.413Z,76.76
2022-10-31T00:09:26.873Z,76.94
2022-10-31T00:10:27.289Z,77.02
2022-10-31T00:11:28.003Z,77.25
2022-10-31T00:12:28.009Z,77.43
2022-10-31T00:13:28.332Z,77.49
2022-10-31T00:14:28.437Z,77.18
2022-10-31T00:15:28.849Z,77.07
2022-10-31T00:16:30.398Z,77.24
2022-10-31T00:17:29.562Z,77.45
2022-10-31T00:18:29.796Z,77.49
2022-10-31T00:19:30.307Z,77.64
2022-10-31T00:20:31.145Z,77.71
2022-10-31T00:21:31.962Z,77.6
2022-10-31T00:22:31.351Z,77.63
2022-10-31T00:23:31.984Z,77.94
2022-10-31T00:24:31.985Z,77.93
2022-10-31T00:25:35.895Z,78.02
2022-10-31T00:26:33.518Z,78.09
2022-10-31T00:27:34.067Z,78.08
2022-10-31T00:28:34.668Z,78.04
2022-10-31T00:29:34.583Z,77.97
2022-10-31T00:30:35.101Z,78.08
2022-10-31T00:31:35.209Z,78.16
2022-10-31T00:32:35.690Z,78.18
2022-10-31T00:33:37.619Z,78.24
2022-10-31T00:34:36.003Z,78.32
2022-10-31T00:35:36.573Z,78.4
2022-10-31T00:36:36.996Z,78.53
2022-10-31T00:37:37.141Z,78.54
2022-10-31T00:38:37.506Z,78.62
2022-10-31T00:39:37.723Z,78.97
2022-10-31T00:40:38.244Z,78.93
2022-10-31T00:41:38.531Z,78.83
2022-10-31T00:42:40.601Z,78.78
2022-10-31T00:43:39.603Z,79.2
2022-10-31T00:44:39.593Z,79.28
2022-10-31T00:45:39.802Z,79.3
2022-10-31T00:46:40.224Z,79.19
2022-10-31T00:47:40.767Z,79.29
2022-10-31T00:48:41.056Z,79.4
2022-10-31T00:49:41.372Z,79.58
2022-10-31T00:50:42.086Z,79.41
2022-10-31T00:51:42.618Z,79.3
2022-10-31T00:52:42.301Z,79.35
2022-10-31T00:53:42.824Z,79.61
2022-10-31T00:54:43.152Z,79.57
2022-10-31T00:55:43.562Z,79.45
2022-10-31T00:56:43.582Z,79.39
2022-10-31T00:57:46.843Z,79.39
2022-10-31T00:58:44.288Z,79.37
2022-10-31T00:59:44.708Z,79.57
2022-10-31T01:00:48.036Z,79.49
2022-10-31T01:01:48.624Z,79.43
2022-10-31T01:02:48.885Z,79.5
2022-10-31T01:03:49.003Z,79.64
2022-10-31T01:04:49.657Z,79.75
2022-10-31T01:06:54.176Z,80.03
2022-10-31T01:07:54.392Z,80.01
2022-10-31T01:08:54.601Z,80.04
2022-10-31T01:09:54.877Z,80.09
2022-10-31T01:11:58.983Z,80.45
2022-10-31T01:12:59.484Z,80.6
2022-10-31T01:13:59.841Z,80.46
2022-10-31T01:15:00.071Z,80.44
2022-10-31T01:16:01.500Z,80.32
2022-10-31T01:17:00.806Z,80.49
2022-10-31T01:18:01.329Z,80.65
2022-10-31T01:19:01.322Z,80.75
2022-10-31T01:20:01.541Z,80.8
2022-10-31T01:21:11.168Z,80.68
2022-10-31T01:22:03.593Z,80.75
2022-10-31T01:23:03.801Z,80.78
2022-10-31T01:24:04.730Z,80.92
2022-10-31T01:25:05.549Z,80.9
2022-10-31T01:26:10.586Z,81.13
2022-10-31T01:27:08.026Z,81.01
2022-10-31T01:28:08.244Z,81.17
2022-10-31T01:29:09.921Z,81.12
2022-10-31T01:30:10.092Z,81.23
2022-10-31T01:31:10.513Z,81.11
2022-10-31T01:32:09.605Z,81.13
2022-10-31T01:33:10.015Z,81.06
2022-10-31T01:34:15.471Z,81.15
2022-10-31T01:35:12.901Z,81.09
2022-10-31T01:36:21.812Z,81.32
2022-10-31T01:37:14.342Z,81.52
2022-10-31T01:38:14.673Z,81.66
2022-10-31T01:39:16.718Z,81.83
2022-10-31T01:40:15.494Z,81.98
2022-10-31T01:41:18.742Z,81.99
2022-10-31T01:42:23.688Z,82.08
2022-10-31T01:45:23.304Z,82.44
2022-10-31T01:48:29.469Z,82.32
2022-10-31T01:51:37.774Z,82.5
2022-10-31T01:53:37.688Z,82.74
2022-10-31T01:55:44.773Z,82.91
2022-10-31T01:56:45.285Z,82.86
2022-10-31T01:57:46.224Z,83.01
2022-10-31T01:58:45.514Z,83.29
2022-10-31T01:59:48.685Z,83.43
2022-10-31T02:00:53.229Z,83.21
2022-10-31T02:01:52.769Z,83.24
2022-10-31T02:02:52.288Z,83.35
2022-10-31T02:03:51.605Z,83.2
2022-10-31T02:04:53.234Z,83.2
2022-10-31T02:05:55.277Z,83.16
2022-10-31T02:08:59.823Z,83.33
2022-10-31T02:09:59.620Z,83.45
2022-10-31T02:11:00.353Z,83.71
2022-10-31T02:12:00.545Z,83.77
2022-10-31T02:13:01.336Z,83.73
2022-10-31T02:14:01.370Z,83.82
2022-10-31T02:15:01.174Z,83.74
2022-10-31T02:16:00.358Z,83.84
2022-10-31T02:17:00.473Z,84.02
2022-10-31T02:18:02.080Z,84.27
2022-10-31T02:19:01.520Z,84.29
2022-10-31T02:47:09.685Z,85.83
2022-10-31T02:48:16.131Z,85.91
2022-10-31T02:51:13.293Z,86.33
2022-10-31T02:52:19.643Z,86.48
2022-10-31T02:53:17.303Z,86.43
2022-10-31T02:54:26.323Z,86.5
2022-10-31T02:56:21.925Z,86.64
2022-10-31T02:58:28.494Z,86.73
2022-10-31T02:59:27.074Z,86.66
2022-10-31T03:00:26.670Z,86.65
2022-10-31T03:20:22.556Z,88.02
2022-10-31T03:22:26.294Z,88.04
2022-10-31T03:23:26.276Z,88.08
2022-10-31T03:25:28.365Z,88.12
2022-10-31T03:26:27.873Z,88.02
2022-10-31T03:27:30.950Z,88.37
2022-10-31T03:32:42.826Z,89.01
2022-10-31T03:33:41.622Z,88.91
2022-10-31T03:34:44.605Z,89.23
2022-10-31T03:35:46.653Z,89.46
2022-10-31T03:36:47.898Z,89.54
2022-10-31T03:37:46.665Z,89.62
2022-10-31T03:38:47.592Z,89.87
2022-10-31T03:39:48.931Z,89.77
2022-10-31T03:40:49.465Z,89.86
2022-10-31T03:43:58.489Z,89.76
2022-10-31T03:45:56.035Z,90.03
2022-10-31T03:46:55.953Z,90.17
2022-10-31T03:47:58.370Z,90.2
2022-10-31T03:48:57.002Z,90.41
2022-10-31T03:49:56.892Z,90.67
2022-10-31T03:56:14.535Z,90.96
2022-10-31T03:59:20.517Z,90.95
2022-10-31T04:00:15.802Z,90.88
2022-10-31T04:01:17.879Z,90.92
2022-10-31T04:02:19.800Z,91.22
2022-10-31T04:03:24.003Z,91.41
2022-10-31T04:04:22.170Z,91.45
2022-10-31T04:05:22.788Z,91.55
2022-10-31T04:06:23.924Z,91.63
2022-10-31T04:07:26.257Z,91.71
2022-10-31T04:08:29.174Z,91.78
2022-10-31T04:09:28.942Z,91.82
2022-10-31T04:10:32.032Z,91.83
2022-10-31T04:11:35.305Z,91.89
2022-10-31T04:12:35.744Z,91.86
2022-10-31T04:13:37.500Z,91.84
2022-10-31T04:14:37.807Z,91.89
2022-10-31T04:15:38.207Z,92
2022-10-31T04:16:35.764Z,92.04
2022-10-31T04:17:40.402Z,92.09
2022-10-31T04:18:37.934Z,92.32
2022-10-31T04:19:38.031Z,92.38
2022-10-31T04:20:41.114Z,92.62
2022-10-31T04:21:38.800Z,92.67
2022-10-31T04:22:39.182Z,92.61
2022-10-31T04:23:39.595Z,92.66
2022-10-31T04:24:41.674Z,92.74
2022-10-31T04:25:40.032Z,92.74
2022-10-31T04:26:40.553Z,92.92
2022-10-31T04:27:40.856Z,92.88
2022-10-31T04:28:41.180Z,92.93
2022-10-31T04:29:44.362Z,93.02
2022-10-31T04:30:44.361Z,92.97
2022-10-31T04:31:44.453Z,93.02
2022-10-31T04:32:44.984Z,92.93
2022-10-31T04:33:45.396Z,93.07
2022-10-31T04:34:45.614Z,93.28
2022-10-31T04:35:45.937Z,93.33
2022-10-31T04:36:46.462Z,93.48
2022-10-31T04:37:46.572Z,93.5
2022-10-31T04:38:46.976Z,93.44
2022-10-31T04:39:47.378Z,93.63
2022-10-31T04:40:47.495Z,93.66
2022-10-31T04:41:48.010Z,93.54
2022-10-31T04:42:48.322Z,93.6
2022-10-31T04:43:48.638Z,93.76
2022-10-31T04:44:48.843Z,94.03
2022-10-31T04:45:49.275Z,94.01
2022-10-31T04:46:49.759Z,94.01
2022-10-31T04:47:50.109Z,94.02
2022-10-31T04:48:50.623Z,94.35
2022-10-31T04:49:50.729Z,94.24
2022-10-31T04:50:50.946Z,94.19
2022-10-31T04:51:51.253Z,94.14
2022-10-31T04:52:51.762Z,94.24
2022-10-31T04:53:51.982Z,94.25
2022-10-31T04:54:52.600Z,94.32
2022-10-31T04:55:52.479Z,94.4
2022-10-31T04:56:52.923Z,94.51
2022-10-31T04:57:53.222Z,94.4
2022-10-31T04:58:53.528Z,94.56
2022-10-31T04:59:54.069Z,94.43
2022-10-31T05:00:55.464Z,94.42
2022-10-31T05:01:54.715Z,94.26
2022-10-31T05:02:57.394Z,94.23
2022-10-31T05:03:55.317Z,94.27
2022-10-31T05:04:55.639Z,94.32
2022-10-31T05:05:55.843Z,94.2
2022-10-31T05:06:56.145Z,94.32
2022-10-31T05:07:56.851Z,94.46
2022-10-31T05:08:56.989Z,94.38
2022-10-31T05:09:57.314Z,94.38
2022-10-31T05:11:04.231Z,94.58
2022-10-31T05:12:02.138Z,94.66
2022-10-31T05:13:04.783Z,94.78
2022-10-31T05:14:02.762Z,94.75
2022-10-31T05:15:03.600Z,94.72
2022-10-31T05:16:03.703Z,94.75
2022-10-31T05:17:03.805Z,94.83
2022-10-31T05:18:04.808Z,94.94
2022-10-31T05:19:04.734Z,95.19
2022-10-31T05:20:05.769Z,95.15
2022-10-31T05:21:05.805Z,95.13
2022-10-31T05:22:05.654Z,95.22
2022-10-31T05:23:05.787Z,95
2022-10-31T05:24:06.791Z,95.04
2022-10-31T05:25:07.237Z,95.2
2022-10-31T05:26:06.836Z,95.4
2022-10-31T05:27:07.154Z,95.53
2022-10-31T05:28:08.078Z,95.69
2022-10-31T05:29:07.967Z,95.58
2022-10-31T05:30:09.209Z,95.52
2022-10-31T05:31:08.607Z,95.5
2022-10-31T05:32:08.814Z,95.51
2022-10-31T05:33:09.335Z,95.47
2022-10-31T05:34:09.547Z,95.4
2022-10-31T05:35:12.524Z,95.46
2022-10-31T05:36:10.293Z,95.63
2022-10-31T05:37:10.597Z,95.61
2022-10-31T05:38:11.211Z,95.58
2022-10-31T05:39:11.429Z,95.55
2022-10-31T05:40:13.680Z,95.58
2022-10-31T05:41:11.957Z,95.58
2022-10-31T05:42:12.267Z,95.56
2022-10-31T05:43:12.583Z,95.47
2022-10-31T05:44:12.996Z,95.41
2022-10-31T05:45:16.178Z,95.36
2022-10-31T05:46:13.493Z,95.4
2022-10-31T05:47:14.060Z,95.33
2022-10-31T05:48:14.366Z,95.31
2022-10-31T05:49:14.671Z,95.23
2022-10-31T05:50:14.978Z,95.27
2022-10-31T05:51:15.184Z,95.25
2022-10-31T05:52:16.433Z,95.28
2022-10-31T05:53:16.646Z,95.23
2022-10-31T05:54:16.455Z,95.27
2022-10-31T05:55:17.278Z,95.33
2022-10-31T05:56:17.084Z,95.38
2022-10-31T05:57:17.481Z,95.48
2022-10-31T05:58:17.680Z,95.37
2022-10-31T05:59:17.967Z,95.34
2022-10-31T06:00:19.652Z,95.43
2022-10-31T06:01:18.778Z,95.47
2022-10-31T06:02:19.053Z,95.45
2022-10-31T06:03:19.383Z,95.57
2022-10-31T06:04:19.855Z,95.55
2022-10-31T06:05:19.999Z,95.43
2022-10-31T06:06:20.535Z,95.24
2022-10-31T06:07:20.733Z,95.09
2022-10-31T06:08:21.302Z,95.22
2022-10-31T06:09:21.361Z,95.2
2022-10-31T06:10:22.083Z,95.13
2022-10-31T06:11:21.987Z,95
2022-10-31T06:12:22.294Z,94.97
2022-10-31T06:13:22.916Z,94.99
2022-10-31T06:14:23.118Z,94.83
2022-10-31T06:15:24.834Z,94.7
2022-10-31T06:16:23.745Z,94.72
2022-10-31T06:17:24.485Z,94.72
2022-10-31T06:18:24.488Z,94.79
2022-10-31T06:19:24.795Z,94.77
2022-10-31T06:20:25.323Z,94.8
2022-10-31T06:21:25.624Z,94.87
2022-10-31T06:22:25.845Z,94.89
2022-10-31T06:23:26.063Z,94.83
2022-10-31T06:24:26.359Z,94.75
2022-10-31T06:25:26.890Z,94.83
2022-10-31T06:26:27.302Z,94.8
2022-10-31T06:27:28.016Z,94.73
2022-10-31T06:28:27.824Z,94.76
2022-10-31T06:29:28.134Z,94.62
2022-10-31T06:30:28.550Z,94.44
2022-10-31T06:31:28.891Z,94.37
2022-10-31T06:32:29.379Z,94.37
2022-10-31T06:33:29.474Z,94.25
2022-10-31T06:34:29.818Z,94.28
2022-10-31T06:35:30.423Z,94.26
2022-10-31T06:36:30.567Z,94.28
2022-10-31T06:37:30.948Z,94.21
2022-10-31T06:38:31.275Z,94.17
2022-10-31T06:39:31.585Z,94.25
2022-10-31T06:40:31.774Z,94.35
2022-10-31T06:41:32.314Z,94.42
2022-10-31T06:42:32.727Z,94.38
2022-10-31T06:43:33.344Z,94.33
2022-10-31T06:44:33.663Z,94.27
2022-10-31T06:45:33.686Z,94.21
2022-10-31T06:46:33.995Z,94.15
2022-10-31T06:47:41.377Z,94.13
2022-10-31T06:48:38.397Z,94.23
2022-10-31T06:49:38.709Z,94.13
2022-10-31T06:50:39.136Z,94.17
2022-10-31T06:51:39.441Z,94.11
2022-10-31T06:52:39.973Z,94.02
2022-10-31T06:53:39.965Z,93.97
2022-10-31T06:54:40.272Z,93.9
2022-10-31T06:55:41.522Z,93.74
2022-10-31T06:56:41.224Z,93.69
2022-10-31T06:57:41.543Z,93.5
2022-10-31T06:58:41.742Z,93.46
2022-10-31T06:59:42.260Z,93.52
2022-10-31T07:00:42.425Z,93.49
2022-10-31T07:01:43.175Z,93.48
2022-10-31T07:02:43.303Z,93.42
2022-10-31T07:03:43.430Z,93.4
2022-10-31T07:04:43.835Z,93.39
2022-10-31T07:05:44.760Z,93.32
2022-10-31T07:06:48.142Z,93.3
2022-10-31T07:07:48.470Z,93.18
2022-10-31T07:08:48.978Z,93.21
2022-10-31T07:09:49.086Z,93.14
2022-10-31T07:10:54.310Z,92.98
2022-10-31T07:11:53.809Z,92.9
2022-10-31T07:13:54.547Z,92.74
2022-10-31T07:14:55.055Z,92.67
2022-10-31T07:16:00.281Z,92.56
2022-10-31T07:16:57.737Z,92.3
2022-10-31T07:18:05.733Z,92.09
2022-10-31T07:18:58.157Z,91.84
2022-10-31T07:19:58.574Z,91.75
2022-10-31T07:20:58.993Z,91.71
2022-10-31T07:22:00.335Z,91.63
2022-10-31T07:23:00.524Z,91.68
2022-10-31T07:23:59.825Z,91.69
2022-10-31T07:25:00.349Z,91.47
2022-10-31T07:26:00.659Z,91.46
2022-10-31T07:27:00.899Z,91.33
2022-10-31T07:28:01.749Z,91.2
2022-10-31T07:29:01.603Z,91.07
2022-10-31T07:30:02.130Z,91.04
2022-10-31T07:31:02.333Z,91.03
2022-10-31T07:32:02.743Z,91.08
2022-10-31T07:33:03.677Z,90.84
2022-10-31T07:34:03.687Z,90.55
2022-10-31T07:35:04.314Z,90.45
2022-10-31T07:36:04.615Z,90.32
2022-10-31T07:37:04.428Z,90.19
2022-10-31T07:38:09.036Z,90.09
2022-10-31T07:39:06.477Z,89.96
2022-10-31T07:40:08.538Z,89.99
2022-10-31T07:41:07.314Z,89.89
2022-10-31T07:42:08.052Z,89.9
2022-10-31T07:43:10.163Z,89.69
2022-10-31T07:44:11.529Z,89.62
2022-10-31T07:45:13.899Z,89.45
2022-10-31T07:46:12.063Z,89.28
2022-10-31T07:47:12.482Z,89.01
2022-10-31T07:48:12.867Z,89.05
2022-10-31T07:49:13.201Z,89.03
2022-10-31T07:50:18.946Z,89.16
2022-10-31T07:51:16.491Z,88.93
2022-10-31T07:52:16.717Z,88.78
2022-10-31T07:53:17.132Z,88.65
2022-10-31T07:54:17.451Z,88.69
2022-10-31T07:55:18.049Z,88.7
2022-10-31T07:56:18.375Z,88.25
2022-10-31T07:57:21.473Z,88.15
2022-10-31T07:58:22.476Z,88.08
2022-10-31T07:59:23.003Z,88.18
2022-10-31T08:00:23.137Z,87.87
2022-10-31T08:01:23.637Z,87.76
2022-10-31T08:02:24.053Z,87.76
2022-10-31T08:03:24.225Z,87.61
2022-10-31T08:04:24.673Z,87.36
2022-10-31T08:05:25.200Z,87.55
2022-10-31T08:06:25.603Z,87.59
2022-10-31T08:07:25.926Z,87.54
2022-10-31T08:08:26.228Z,87.29
2022-10-31T08:09:26.643Z,87.14
2022-10-31T08:10:28.082Z,86.85
2022-10-31T08:11:27.683Z,86.97
2022-10-31T08:12:27.489Z,86.67
2022-10-31T08:13:27.897Z,86.39
2022-10-31T08:14:28.420Z,86.14
2022-10-31T08:15:28.850Z,86.11
2022-10-31T08:16:28.945Z,86.13
2022-10-31T08:17:29.164Z,86.04
2022-10-31T08:18:29.675Z,85.75
2022-10-31T08:19:29.985Z,85.58
2022-10-31T08:20:30.406Z,85.46
2022-10-31T08:21:30.716Z,85.3
2022-10-31T08:22:31.052Z,85.16
2022-10-31T08:23:31.546Z,85.12
2022-10-31T08:24:31.813Z,85.14
2022-10-31T08:25:38.266Z,84.92
2022-10-31T08:26:36.483Z,84.86
2022-10-31T08:27:36.692Z,84.68
2022-10-31T08:28:37.023Z,84.28
2022-10-31T08:29:37.523Z,84.08
2022-10-31T08:30:39.286Z,84
2022-10-31T08:31:42.600Z,83.43
2022-10-31T08:32:40.433Z,83.07
2022-10-31T08:33:40.944Z,82.81
2022-10-31T08:34:41.039Z,83.01
2022-10-31T08:35:42.071Z,83.23
2022-10-31T08:36:42.086Z,82.76
2022-10-31T08:37:42.597Z,82.35
2022-10-31T08:38:42.816Z,82.03
2022-10-31T08:39:43.125Z,81.33
2022-10-31T08:40:43.353Z,81.24
2022-10-31T08:41:43.747Z,81.66
2022-10-31T08:42:44.274Z,81.22
2022-10-31T08:43:44.478Z,80.85
2022-10-31T08:44:44.698Z,80.55
2022-10-31T08:45:48.693Z,79.74
2022-10-31T08:46:46.453Z,79.86
2022-10-31T08:47:46.665Z,79.14
2022-10-31T08:48:49.530Z,79.01
2022-10-31T08:49:47.293Z,78.96
2022-10-31T08:50:47.723Z,79.25
2022-10-31T08:51:51.142Z,78.96
2022-10-31T08:53:04.318Z,79.2
2022-10-31T08:53:52.845Z,78.86
2022-10-31T08:54:53.372Z,78.83
2022-10-31T08:55:56.351Z,78.26
2022-10-31T08:56:57.261Z,77.72
2022-10-31T08:57:58.942Z,76.91
2022-10-31T08:58:56.958Z,76.45
2022-10-31T08:59:57.586Z,75.44
2022-10-31T09:01:00.871Z,75.85
2022-10-31T09:01:58.967Z,74.99
2022-10-31T09:03:00.923Z,73.73
2022-10-31T09:03:59.051Z,73.43
2022-10-31T09:04:59.573Z,73.92
2022-10-31T09:06:01.492Z,73.67
2022-10-31T09:07:20.573Z,72.79
2022-10-31T09:08:05.004Z,72.04
2022-10-31T09:09:02.872Z,71.61
2022-10-31T09:10:03.699Z,71.17
2022-10-31T09:11:04.756Z,71.12
2022-10-31T09:12:04.535Z,71.62
2022-10-31T09:13:08.335Z,70.9
2022-10-31T09:14:05.885Z,69.17
2022-10-31T09:15:06.914Z,68.98
2022-10-31T09:16:07.526Z,70.12
2022-10-31T09:17:07.122Z,69.9
2022-10-31T09:18:08.777Z,69.17
2022-10-31T09:19:11.389Z,69.52
2022-10-31T09:20:10.109Z,69.55
2022-10-31T09:21:09.421Z,69.23
2022-10-31T09:22:09.823Z,69.27
2022-10-31T09:23:12.396Z,69.42
2022-10-31T09:24:11.067Z,69.68
2022-10-31T09:25:11.270Z,69.74
2022-10-31T09:26:11.295Z,70.7
2022-10-31T09:27:11.720Z,70.73
2022-10-31T09:28:14.787Z,70.68
2022-10-31T09:29:12.317Z,70.66
2022-10-31T09:30:13.564Z,70.62
2022-10-31T09:31:13.669Z,71.2
2022-10-31T09:32:13.874Z,70.95
2022-10-31T09:33:14.808Z,71.21
2022-10-31T09:34:14.303Z,70
2022-10-31T09:35:16.505Z,70.12
2022-10-31T09:36:15.747Z,70.1
2022-10-31T09:37:16.175Z,70.23
2022-10-31T09:39:19.348Z,69.78
2022-10-31T09:40:19.795Z,69.7
2022-10-31T09:45:44.281Z,67.93
2022-10-31T09:51:50.458Z,66.88
2022-10-31T09:52:46.475Z,66.71
2022-10-31T09:55:53.967Z,65.77
2022-10-31T10:00:06.074Z,65.98
2022-10-31T10:01:05.633Z,65.56
2022-10-31T10:05:23.309Z,66.77
2022-10-31T10:09:27.194Z,65.99
2022-10-31T10:30:20.405Z,66.23
2022-10-31T10:31:24.404Z,66.17
2022-10-31T10:32:26.481Z,64.78
2022-10-31T10:37:33.155Z,65.33
2022-10-31T10:40:38.183Z,65.74
2022-10-31T10:41:39.324Z,65.22
2022-10-31T10:42:38.107Z,65.92
2022-10-31T10:43:39.475Z,66.18
2022-10-31T10:45:43.642Z,65.63
2022-10-31T10:46:44.055Z,64.63
2022-10-31T10:47:45.302Z,64.72
2022-10-31T10:50:49.425Z,65.39
2022-10-31T10:58:11.468Z,65.55
2022-10-31T10:59:14.852Z,65.74
2022-10-31T11:02:21.142Z,65.88
2022-10-31T11:03:19.795Z,66.16
2022-10-31T11:06:26.171Z,66.16
2022-10-31T11:07:23.922Z,65.84
2022-10-31T11:09:26.289Z,66.17
2022-10-31T11:10:27.221Z,65.87
2022-10-31T11:11:29.998Z,65.98
2022-10-31T11:12:35.027Z,66.21
2022-10-31T11:13:34.609Z,66.21
2022-10-31T11:14:36.918Z,66.33
2022-10-31T11:16:41.148Z,66.15
2022-10-31T11:17:41.600Z,66.4
2022-10-31T11:18:43.360Z,66.33
2022-10-31T11:19:41.015Z,66.43
2022-10-31T11:20:41.313Z,65.86
2022-10-31T11:21:42.341Z,66.27
2022-10-31T11:22:45.144Z,66.66
2022-10-31T11:23:42.665Z,66.41
2022-10-31T11:24:43.568Z,66.24
2022-10-31T11:28:59.693Z,65.72
2022-10-31T11:32:02.082Z,66.19
2022-10-31T11:33:01.740Z,66.36
2022-10-31T11:35:10.295Z,66.98
2022-10-31T11:40:23.340Z,66.26
2022-10-31T11:43:25.794Z,66.1
2022-10-31T11:44:28.573Z,66.04
2022-10-31T11:45:33.263Z,65.81
2022-10-31T11:47:35.045Z,65.52
2022-10-31T11:48:35.150Z,65.31
2022-10-31T11:49:44.068Z,65.57
2022-10-31T11:50:43.254Z,65.6
2022-10-31T11:51:41.299Z,65.09
2022-10-31T11:52:41.734Z,65.35
2022-10-31T11:53:54.351Z,65.89
2022-10-31T11:54:50.040Z,65.37
2022-10-31T11:55:47.798Z,65.93
2022-10-31T11:56:48.006Z,66.41
2022-10-31T11:57:53.232Z,65.76
2022-10-31T11:59:56.018Z,65.59
2022-10-31T12:00:58.762Z,65.74
2022-10-31T12:01:58.925Z,65.69
2022-10-31T12:04:09.664Z,65.73
2022-10-31T12:07:07.741Z,65.99
2022-10-31T12:10:14.212Z,64.73
2022-10-31T13:00:16.596Z,62.93
2022-10-31T13:10:41.729Z,63.42
2022-10-31T13:11:43.172Z,63.66
2022-10-31T13:12:37.788Z,63.29
2022-10-31T13:13:49.960Z,63.53
2022-10-31T13:16:49.250Z,64.17
2022-10-31T13:20:00.159Z,64.3
2022-10-31T13:21:00.226Z,64.24
2022-10-31T13:30:30.103Z,64.98
2022-10-31T13:31:27.940Z,64.99
2022-10-31T13:44:51.068Z,66.61
2022-10-31T13:45:56.296Z,66.76
2022-10-31T13:46:55.087Z,66.68
2022-10-31T13:48:02.982Z,66.62
2022-10-31T13:48:58.466Z,66.97
2022-10-31T13:51:01.762Z,67.23
2022-10-31T13:59:20.147Z,67.89
2022-10-31T14:00:27.216Z,68.15
2022-10-31T14:01:23.693Z,68.1
2022-10-31T14:02:31.753Z,68.66
2022-10-31T14:03:50.245Z,68.62
2022-10-31T14:05:35.033Z,68.86
2022-10-31T14:11:49.926Z,69.79
2022-10-31T14:12:50.029Z,69.74
2022-10-31T14:13:48.914Z,69.7
2022-10-31T14:14:52.593Z,69.7
2022-10-31T14:16:57.224Z,69.97
2022-10-31T14:19:03.068Z,70.59
2022-10-31T14:22:04.628Z,70.86
2022-10-31T14:28:36.921Z,72.25
2022-10-31T14:29:34.259Z,72.28
2022-10-31T14:30:32.734Z,72.04
2022-10-31T14:32:37.451Z,72.43
2022-10-31T14:33:35.925Z,72.58
2022-10-31T14:34:39.738Z,72.42
2022-10-31T14:51:32.669Z,73.99
2022-10-31T14:52:30.227Z,74.7
2022-10-31T14:53:43.717Z,74.61
2022-10-31T14:54:45.182Z,74.88
2022-10-31T14:55:33.935Z,75.14
2022-10-31T14:56:36.084Z,74.96
2022-10-31T14:57:38.028Z,74.83
2022-10-31T14:58:44.894Z,74.92
2022-10-31T14:59:41.472Z,75.28
2022-10-31T15:00:39.420Z,74.97
2022-10-31T15:01:41.140Z,74.6
2022-10-31T15:04:47.818Z,75.26
2022-10-31T15:06:52.830Z,75.01
2022-10-31T15:07:57.325Z,75.65
2022-10-31T15:08:55.509Z,75.49
2022-10-31T15:10:04.017Z,75.68
2022-10-31T15:10:56.545Z,75.86
2022-10-31T15:11:56.961Z,76.12
2022-10-31T15:13:09.175Z,76.36
2022-10-31T15:14:01.675Z,75.96
2022-10-31T15:16:02.718Z,76.17
2022-10-31T15:17:04.468Z,76.24
2022-10-31T15:18:06.427Z,76.79
2022-10-31T15:20:12.072Z,76.62
2022-10-31T15:21:12.402Z,76.61
2022-10-31T15:23:22.844Z,77.2
2022-10-31T15:24:16.408Z,76.37
2022-10-31T15:25:21.111Z,77.05
2022-10-31T15:26:23.581Z,77.11
2022-10-31T15:27:21.030Z,77.45
2022-10-31T15:28:25.753Z,77.49
2022-10-31T15:29:27.182Z,77.42
2022-10-31T15:30:27.262Z,77.58
2022-10-31T15:31:25.155Z,77.06
2022-10-31T15:32:28.230Z,76.84
2022-10-31T15:33:37.913Z,77.16
2022-10-31T15:34:39.705Z,76.67
2022-10-31T15:35:29.994Z,77.67
2022-10-31T15:36:29.287Z,77.81
2022-10-31T15:37:28.261Z,77.68
2022-10-31T15:38:30.009Z,77.41
2022-10-31T15:39:28.675Z,77.7
2022-10-31T15:40:29.409Z,77.49
2022-10-31T15:43:38.024Z,77.69
2022-10-31T15:44:41.717Z,77.33
2022-10-31T15:45:39.166Z,77.71
2022-10-31T15:46:39.595Z,77.48
2022-10-31T15:47:40.614Z,77.4
2022-10-31T15:48:45.545Z,77.97
2022-10-31T15:50:52.201Z,78.06
2022-10-31T15:51:54.240Z,78.33
2022-10-31T15:52:52.322Z,78.45
2022-10-31T15:53:54.901Z,78.08
2022-10-31T15:55:00.727Z,78.32
2022-10-31T15:55:56.741Z,78.14
2022-10-31T15:56:54.087Z,78.46
2022-10-31T15:58:02.692Z,78.31
2022-10-31T15:58:57.480Z,78.58
2022-10-31T15:59:56.171Z,78.54
2022-10-31T16:05:18.400Z,79.28
2022-10-31T16:07:22.904Z,79.11
2022-10-31T16:10:27.244Z,79.11
2022-10-31T16:13:34.629Z,78.95
2022-10-31T16:14:39.868Z,79.34
2022-10-31T16:15:32.177Z,79.32
2022-10-31T16:16:35.981Z,79.61
2022-10-31T16:17:34.367Z,80.08
2022-10-31T16:18:38.559Z,79.42
2022-10-31T16:19:38.776Z,79.91
2022-10-31T16:20:36.534Z,79.61
2022-10-31T16:21:39.525Z,79.01
2022-10-31T16:22:40.122Z,79.57
2022-10-31T16:23:39.622Z,80.11
2022-10-31T16:25:42.507Z,80.55
2022-10-31T16:26:43.127Z,80.77
2022-10-31T16:27:54.182Z,80.42
2022-10-31T16:29:04.804Z,81.12
2022-10-31T16:29:48.670Z,80.75
2022-10-31T16:30:49.906Z,81.46
2022-10-31T16:31:48.682Z,81.15
2022-10-31T16:36:09.511Z,81.16
2022-10-31T16:36:58.341Z,82.38
2022-10-31T16:37:58.964Z,82.92
2022-10-31T16:38:59.685Z,83.02
2022-10-31T16:39:59.589Z,83.74
2022-10-31T16:41:02.254Z,84.19
2022-10-31T16:42:00.319Z,84.14
2022-10-31T16:43:02.273Z,84.42
2022-10-31T16:44:03.302Z,83.85
2022-10-31T16:45:01.274Z,84.28
2022-10-31T16:46:01.673Z,84
2022-10-31T16:48:11.520Z,84.4
2022-10-31T16:49:11.218Z,84.26
2022-10-31T16:51:09.695Z,85.37
2022-10-31T16:52:10.525Z,85.46
2022-10-31T16:53:14.298Z,85.55
2022-10-31T16:54:11.971Z,85.52
2022-10-31T16:55:14.143Z,86.05
2022-10-31T16:59:21.112Z,86.69
2022-10-31T17:00:24.091Z,86.81
2022-10-31T17:01:22.071Z,87.36
2022-10-31T17:02:22.909Z,87.74
2022-10-31T17:03:22.781Z,87.58
2022-10-31T17:04:22.855Z,86.53
2022-10-31T17:05:24.842Z,86.64
2022-10-31T17:06:23.739Z,86.96
2022-10-31T17:07:23.932Z,87.32
2022-10-31T17:08:24.860Z,87.74
2022-10-31T17:09:24.663Z,87.88
2022-10-31T17:10:26.410Z,87.72
2022-10-31T17:11:26.959Z,86.98
2022-10-31T17:12:28.393Z,87.28
2022-10-31T17:13:30.008Z,87.7
2022-10-31T17:14:27.671Z,87.6
2022-10-31T17:15:29.233Z,88.41
2022-10-31T17:16:27.997Z,88.68
2022-10-31T17:17:28.609Z,88.63
2022-10-31T17:18:29.027Z,88.31
2022-10-31T17:19:29.139Z,88.67
2022-10-31T17:20:31.595Z,88.61
2022-10-31T17:21:30.790Z,87.82
2022-10-31T17:22:30.457Z,87.64
2022-10-31T17:23:30.710Z,87.69
2022-10-31T17:24:30.793Z,87.56
2022-10-31T17:25:31.425Z,87.88
2022-10-31T17:26:31.639Z,88.04
2022-10-31T17:27:32.050Z,88.29
2022-10-31T17:28:32.259Z,88.33
2022-10-31T17:29:32.567Z,88.3
2022-10-31T17:30:34.232Z,88.22
2022-10-31T17:31:35.784Z,88.13
2022-10-31T17:32:33.746Z,88.09
2022-10-31T17:33:34.036Z,87.86
2022-10-31T17:34:34.349Z,87.96
2022-10-31T17:35:34.668Z,88.12
2022-10-31T17:36:35.676Z,88.3
2022-10-31T17:37:35.702Z,87.82
2022-10-31T17:38:38.274Z,87.67
2022-10-31T17:39:36.030Z,87.86
2022-10-31T17:40:38.218Z,87.72
2022-10-31T17:41:36.751Z,88.09
2022-10-31T17:42:37.180Z,88.17
2022-10-31T17:43:37.789Z,88.42
2022-10-31T17:44:37.997Z,88.54
2022-10-31T17:45:42.002Z,88.4
2022-10-31T17:46:39.560Z,88.21
2022-10-31T17:47:40.065Z,88.28
2022-10-31T17:48:40.395Z,88.74
2022-10-31T17:49:40.497Z,88.76
2022-10-31T17:50:41.009Z,88.91
2022-10-31T17:51:41.127Z,89.02
2022-10-31T17:52:41.741Z,89.36
2022-10-31T17:53:41.956Z,88.96
2022-10-31T17:54:42.268Z,88.51
2022-10-31T17:55:42.786Z,89.06
2022-10-31T17:56:42.905Z,89.25
2022-10-31T17:57:43.823Z,89.11
2022-10-31T17:58:43.620Z,89.4
2022-10-31T17:59:44.343Z,89.35
2022-10-31T18:00:47.265Z,89.61
2022-10-31T18:01:48.339Z,89.6
2022-10-31T18:02:48.054Z,89.59
2022-10-31T18:03:48.569Z,89.9
2022-10-31T18:04:48.898Z,89.77
2022-10-31T18:06:53.197Z,89.44
2022-10-31T18:07:53.636Z,89.38
2022-10-31T18:08:54.029Z,89.2
2022-10-31T18:09:54.447Z,89.36
2022-10-31T18:10:56.105Z,89.41
2022-10-31T18:11:55.078Z,89.16
2022-10-31T18:12:55.594Z,89.17
2022-10-31T18:13:57.755Z,89.35
2022-10-31T18:14:56.013Z,88.55
2022-10-31T18:15:56.635Z,88.63
2022-10-31T18:16:56.950Z,89.3
2022-10-31T18:17:57.065Z,89.86
2022-10-31T18:18:58.907Z,89.99
2022-10-31T18:19:57.992Z,90.21
2022-10-31T18:20:58.719Z,90.32
2022-10-31T18:21:58.517Z,90.63